| time (UTC) | temp F | wind direction | speed knots | gust knots | rain 1hr in | rain 24hr in | rain mn in | humidity % | barometer mb |
| 20260506092330 | 58 | 291 | 1.7 | 7.8 | 0.00 | 0.00 | 0.00 | 29 | 1013.4 |
| 20260506091838 | 57 | 299 | 0.9 | 7.0 | 0.00 | 0.00 | 0.00 | 29 | 1013.4 |
| 20260506091346 | 57 | 302 | 2.6 | 7.0 | 0.00 | 0.00 | 0.00 | 31 | 1013.4 |
| 20260506090850 | 56 | 295 | 3.5 | 7.0 | 0.00 | 0.00 | 0.00 | 34 | 1013.5 |
| 20260506090356 | 56 | 249 | 0.9 | 5.2 | 0.00 | 0.00 | 0.00 | 32 | 1013.5 |
| 20260506085824 | 56 | 268 | 0.9 | 5.2 | 0.00 | 0.00 | 0.00 | 31 | 1013.5 |
| 20260506085324 | 57 | 306 | 1.7 | 5.2 | 0.00 | 0.00 | 0.00 | 29 | 1013.4 |
| 20260506084845 | 57 | 304 | 3.5 | 5.2 | 0.00 | 0.00 | 0.00 | 28 | 1013.4 |
| 20260506084324 | 57 | 118 | 2.6 | 7.8 | 0.00 | 0.00 | 0.00 | 36 | 1013.5 |
| 20260506083825 | 57 | 141 | 4.3 | 7.8 | 0.00 | 0.00 | 0.00 | 32 | 1013.5 |
| 20260506083346 | 58 | 152 | 1.7 | 7.0 | 0.00 | 0.00 | 0.00 | 31 | 1013.5 |
| 20260506082835 | 58 | 145 | 1.7 | 5.2 | 0.00 | 0.00 | 0.00 | 31 | 1013.5 |
| 20260506082324 | 58 | 152 | 1.7 | 5.2 | 0.00 | 0.00 | 0.00 | 30 | 1013.5 |
| 20260506081825 | 58 | 146 | 1.7 | 4.3 | 0.00 | 0.00 | 0.00 | 35 | 1013.4 |
| 20260506081325 | 58 | 143 | 1.7 | 4.3 | 0.00 | 0.00 | 0.00 | 34 | 1013.5 |
| 20260506080826 | 57 | 96 | 2.6 | 8.7 | 0.00 | 0.00 | 0.00 | 38 | 1013.5 |
| 20260506080325 | 56 | 148 | 4.3 | 8.7 | 0.00 | 0.00 | 0.00 | 34 | 1013.5 |
| 20260506073333 | 54 | 161 | 3.5 | 7.8 | 0.00 | 0.00 | 0.00 | 41 | 1013.4 |
| 20260506072841 | 54 | 107 | 5.2 | 7.8 | 0.00 | 0.00 | 0.00 | 40 | 1013.4 |
| 20260506072347 | 53 | 192 | 2.6 | 7.8 | 0.00 | 0.00 | 0.00 | 40 | 1013.4 |
| 20260506071825 | 53 | 166 | 2.6 | 7.0 | 0.00 | 0.00 | 0.00 | 40 | 1013.4 |
| 20260506071354 | 53 | 167 | 3.5 | 7.0 | 0.00 | 0.00 | 0.00 | 41 | 1013.4 |
| 20260506070841 | 52 | 147 | 3.5 | 7.8 | 0.00 | 0.00 | 0.00 | 45 | 1013.4 |
| 20260506070329 | 52 | 156 | 3.5 | 7.0 | 0.00 | 0.00 | 0.00 | 43 | 1013.4 |
| 20260506062329 | 48 | 142 | 2.6 | 7.0 | 0.00 | 0.00 | 0.00 | 55 | 1013.4 |
| 20260506061829 | 48 | 120 | 1.7 | 7.0 | 0.00 | 0.00 | 0.00 | 58 | 1013.4 |
| 20260506061328 | 47 | 142 | 3.5 | 6.1 | 0.00 | 0.00 | 0.00 | 57 | 1013.4 |
| 20260506060829 | 46 | 157 | 2.6 | 8.7 | 0.00 | 0.00 | 0.00 | 62 | 1013.4 |
| 20260506060350 | 44 | 136 | 3.5 | 8.7 | 0.00 | 0.00 | 0.00 | 65 | 1013.4 |
| 20260506051351 | 35 | 316 | 0.0 | 0.0 | 0.00 | 0.00 | 0.00 | 85 | 1013.3 |
| 20260506050838 | 35 | 315 | 0.0 | 0.0 | 0.00 | 0.00 | 0.00 | 85 | 1013.3 |
| 20260506050328 | 34 | 316 | 0.0 | 0.9 | 0.00 | 0.00 | 0.00 | 87 | 1013.4 |
| 20260506044829 | 33 | 316 | 0.9 | 2.6 | 0.00 | 0.00 | 0.00 | 87 | 1013.3 |
| 20260506044329 | 33 | 186 | 0.0 | 0.0 | 0.00 | 0.00 | 0.00 | 86 | 1013.3 |
| 20260506043829 | 32 | 186 | 0.0 | 0.0 | 0.00 | 0.00 | 0.00 | 86 | 1013.2 |
| 20260506043350 | 32 | 186 | 0.0 | 0.0 | 0.00 | 0.00 | 0.00 | 87 | 1013.2 |
| 20260506042829 | 31 | 186 | 0.0 | 0.0 | 0.00 | 0.00 | 0.00 | 88 | 1013.2 |
| 20260506042330 | 31 | 186 | 0.0 | 0.0 | 0.00 | 0.00 | 0.00 | 86 | 1013.2 |
| 20260506041839 | 31 | 186 | 0.0 | 0.0 | 0.00 | 0.00 | 0.00 | 86 | 1013.3 |
| 20260506041328 | 30 | 186 | 0.0 | 0.0 | 0.00 | 0.00 | 0.00 | 87 | 1013.2 |
| 20260506040828 | 30 | 186 | 0.0 | 0.9 | 0.00 | 0.00 | 0.00 | 86 | 1013.3 |
| 20260506040336 | 29 | 186 | 0.0 | 1.7 | 0.00 | 0.00 | 0.00 | 87 | 1013.3 |
| 20260506035824 | 29 | 186 | 0.9 | 1.7 | 0.00 | 0.00 | 0.00 | 88 | 1013.3 |
| 20260506035332 | 28 | 186 | 0.0 | 0.9 | 0.00 | 0.00 | 0.00 | 88 | 1013.3 |
| 20260506034901 | 28 | 186 | 0.9 | 0.9 | 0.00 | 0.00 | 0.00 | 88 | 1013.3 |
| 20260506034328 | 28 | 186 | 0.0 | 2.6 | 0.00 | 0.00 | 0.00 | 88 | 1013.4 |
| 20260506033836 | 28 | 186 | 1.7 | 2.6 | 0.00 | 0.00 | 0.00 | 87 | 1013.3 |
| 20260506033324 | 28 | 186 | 0.9 | 1.7 | 0.00 | 0.00 | 0.00 | 87 | 1013.2 |
| 20260506032831 | 28 | 186 | 0.9 | 1.7 | 0.00 | 0.00 | 0.00 | 87 | 1013.2 |
| 20260506032332 | 28 | 186 | 0.9 | 1.7 | 0.00 | 0.00 | 0.00 | 87 | 1013.3 |
| 20260506031840 | 28 | 186 | 1.7 | 1.7 | 0.00 | 0.00 | 0.00 | 87 | 1013.2 |
| 20260506031328 | 28 | 186 | 0.0 | 1.7 | 0.00 | 0.00 | 0.00 | 87 | 1013.1 |
| 20260506030828 | 28 | 186 | 0.9 | 1.7 | 0.00 | 0.00 | 0.00 | 87 | 1013.1 |
| 20260506030336 | 28 | 186 | 0.9 | 1.7 | 0.00 | 0.00 | 0.00 | 87 | 1013.1 |
| 20260506025825 | 28 | 186 | 0.9 | 1.7 | 0.00 | 0.00 | 0.00 | 86 | 1013.0 |
| 20260506025352 | 28 | 186 | 0.9 | 1.7 | 0.00 | 0.00 | 0.00 | 86 | 1013.0 |
| 20260506024832 | 28 | 186 | 0.9 | 1.7 | 0.00 | 0.00 | 0.00 | 86 | 1013.0 |
| 20260506024331 | 28 | 186 | 0.9 | 1.7 | 0.00 | 0.00 | 0.00 | 86 | 1013.0 |
| 20260506023832 | 28 | 186 | 0.9 | 2.6 | 0.00 | 0.00 | 0.00 | 85 | 1013.0 |
| 20260506023331 | 28 | 186 | 1.7 | 2.6 | 0.00 | 0.00 | 0.00 | 85 | 1012.9 |
| 20260506022850 | 29 | 186 | 1.7 | 1.7 | 0.00 | 0.00 | 0.00 | 84 | 1013.0 |
| 20260506022350 | 29 | 186 | 0.9 | 1.7 | 0.00 | 0.00 | 0.00 | 84 | 1013.0 |
| 20260506021828 | 29 | 186 | 0.9 | 0.9 | 0.00 | 0.00 | 0.00 | 84 | 1012.9 |
| 20260506021329 | 29 | 186 | 0.0 | 0.0 | 0.00 | 0.00 | 0.00 | 84 | 1012.9 |
| 20260506020830 | 29 | 186 | 0.0 | 0.9 | 0.00 | 0.00 | 0.00 | 84 | 1012.9 |
| 20260506020350 | 29 | 186 | 0.0 | 1.7 | 0.00 | 0.00 | 0.00 | 85 | 1012.9 |
| 20260506015830 | 29 | 186 | 0.9 | 1.7 | 0.00 | 0.00 | 0.00 | 85 | 1012.8 |
| 20260506015330 | 29 | 186 | 0.9 | 1.7 | 0.00 | 0.00 | 0.00 | 84 | 1012.8 |
| 20260506014832 | 29 | 186 | 1.7 | 1.7 | 0.00 | 0.00 | 0.00 | 83 | 1012.7 |
| 20260506014332 | 29 | 186 | 0.9 | 1.7 | 0.00 | 0.00 | 0.00 | 83 | 1012.7 |
| 20260506013852 | 29 | 186 | 0.9 | 1.7 | 0.00 | 0.00 | 0.00 | 84 | 1012.7 |
| 20260506013331 | 29 | 186 | 0.9 | 1.7 | 0.00 | 0.00 | 0.00 | 84 | 1012.7 |
| 20260506012831 | 29 | 186 | 0.9 | 1.7 | 0.00 | 0.00 | 0.00 | 83 | 1012.6 |
| 20260506012339 | 29 | 186 | 0.9 | 1.7 | 0.00 | 0.00 | 0.00 | 83 | 1012.6 |
| 20260506011829 | 29 | 186 | 0.9 | 1.7 | 0.00 | 0.00 | 0.00 | 84 | 1012.6 |
| 20260506011331 | 30 | 186 | 1.7 | 1.7 | 0.00 | 0.00 | 0.00 | 84 | 1012.6 |
| 20260506010831 | 30 | 186 | 1.7 | 1.7 | 0.00 | 0.00 | 0.00 | 83 | 1012.6 |
| 20260506010331 | 30 | 186 | 0.9 | 1.7 | 0.00 | 0.00 | 0.00 | 83 | 1012.5 |
| 20260506005827 | 30 | 186 | 0.0 | 0.9 | 0.00 | 0.00 | 0.00 | 83 | 1012.5 |
| 20260506005348 | 30 | 186 | 0.0 | 1.7 | 0.00 | 0.00 | 0.00 | 83 | 1012.5 |
| 20260506004827 | 30 | 186 | 0.9 | 1.7 | 0.00 | 0.00 | 0.00 | 84 | 1012.4 |
| 20260506004347 | 30 | 186 | 0.0 | 1.7 | 0.00 | 0.00 | 0.00 | 84 | 1012.4 |
| 20260506003854 | 30 | 186 | 0.9 | 1.7 | 0.00 | 0.00 | 0.00 | 84 | 1012.3 |
| 20260506003341 | 30 | 186 | 0.9 | 2.6 | 0.00 | 0.00 | 0.00 | 84 | 1012.3 |
| 20260506002829 | 30 | 186 | 1.7 | 2.6 | 0.00 | 0.00 | 0.00 | 84 | 1012.3 |
| 20260506002327 | 30 | 186 | 0.9 | 2.6 | 0.00 | 0.00 | 0.00 | 84 | 1012.2 |
| 20260506001834 | 30 | 186 | 1.7 | 2.6 | 0.00 | 0.00 | 0.00 | 83 | 1012.2 |
| 20260506001343 | 30 | 186 | 1.7 | 2.6 | 0.00 | 0.00 | 0.00 | 83 | 1012.2 |
| 20260506000830 | 31 | 186 | 0.9 | 2.6 | 0.00 | 0.00 | 0.00 | 82 | 1012.2 |
| 20260506000351 | 31 | 186 | 0.9 | 1.7 | 0.00 | 0.00 | 0.00 | 82 | 1012.2 |
| 20260505235829 | 31 | 186 | 0.0 | 1.7 | 0.00 | 0.00 | 0.00 | 82 | 1012.2 |
| 20260505235335 | 31 | 186 | 0.9 | 1.7 | 0.00 | 0.00 | 0.00 | 81 | 1012.2 |
| 20260505234824 | 31 | 186 | 0.9 | 1.7 | 0.00 | 0.00 | 0.00 | 82 | 1012.2 |
| 20260505234331 | 31 | 186 | 1.7 | 1.7 | 0.00 | 0.00 | 0.00 | 82 | 1012.1 |
| 20260505233840 | 31 | 186 | 0.9 | 2.6 | 0.00 | 0.00 | 0.00 | 82 | 1012.1 |
| 20260505233348 | 31 | 186 | 0.9 | 2.6 | 0.00 | 0.00 | 0.00 | 81 | 1012.1 |
| 20260505232827 | 32 | 186 | 0.9 | 2.6 | 0.00 | 0.00 | 0.00 | 80 | 1012.1 |
| 20260505232328 | 32 | 186 | 0.9 | 2.6 | 0.00 | 0.00 | 0.00 | 77 | 1012.1 |
| 20260505231829 | 33 | 186 | 1.7 | 2.6 | 0.00 | 0.00 | 0.00 | 75 | 1012.0 |
| 20260505231329 | 33 | 186 | 0.0 | 0.9 | 0.00 | 0.00 | 0.00 | 76 | 1012.0 |
| 20260505230850 | 33 | 186 | 0.9 | 0.9 | 0.00 | 0.00 | 0.00 | 77 | 1012.0 |
| 20260505230328 | 33 | 186 | 0.0 | 0.9 | 0.00 | 0.00 | 0.00 | 77 | 1012.0 |
| 20260505225828 | 33 | 186 | 0.9 | 2.6 | 0.00 | 0.00 | 0.00 | 77 | 1011.9 |
| 20260505225336 | 33 | 186 | 0.9 | 2.6 | 0.00 | 0.00 | 0.00 | 75 | 1011.9 |
| 20260505224824 | 33 | 186 | 0.9 | 1.7 | 0.00 | 0.00 | 0.00 | 77 | 1011.8 |
| 20260505224352 | 33 | 186 | 0.9 | 1.7 | 0.00 | 0.00 | 0.00 | 78 | 1011.8 |
| 20260505223831 | 33 | 186 | 0.9 | 1.7 | 0.00 | 0.00 | 0.00 | 77 | 1011.9 |
| 20260505223352 | 34 | 186 | 0.9 | 1.7 | 0.00 | 0.00 | 0.00 | 77 | 1011.8 |
| 20260505222831 | 34 | 186 | 0.9 | 1.7 | 0.00 | 0.00 | 0.00 | 73 | 1011.8 |
| 20260505222333 | 34 | 186 | 0.0 | 0.0 | 0.00 | 0.00 | 0.00 | 72 | 1011.8 |
| 20260505221840 | 34 | 186 | 0.0 | 0.0 | 0.00 | 0.00 | 0.00 | 73 | 1011.8 |
| 20260505221349 | 34 | 186 | 0.0 | 0.0 | 0.00 | 0.00 | 0.00 | 73 | 1011.8 |
| 20260505220836 | 34 | 186 | 0.0 | 0.0 | 0.00 | 0.00 | 0.00 | 72 | 1011.8 |
| 20260505220325 | 34 | 186 | 0.0 | 0.0 | 0.00 | 0.00 | 0.00 | 71 | 1011.8 |
| 20260505215852 | 34 | 186 | 0.0 | 0.0 | 0.00 | 0.00 | 0.00 | 73 | 1011.7 |
| 20260505215329 | 35 | 186 | 0.0 | 0.0 | 0.00 | 0.00 | 0.00 | 76 | 1011.6 |
| 20260505214828 | 35 | 186 | 0.0 | 0.0 | 0.00 | 0.00 | 0.00 | 73 | 1011.6 |
| 20260505214327 | 35 | 186 | 0.0 | 0.0 | 0.00 | 0.00 | 0.00 | 74 | 1011.5 |
| 20260505213836 | 35 | 186 | 0.0 | 0.9 | 0.00 | 0.00 | 0.00 | 72 | 1011.6 |
| 20260505213324 | 35 | 186 | 0.0 | 0.9 | 0.00 | 0.00 | 0.00 | 72 | 1011.5 |
| 20260505212852 | 35 | 186 | 0.0 | 0.9 | 0.00 | 0.00 | 0.00 | 74 | 1011.4 |
| 20260505212331 | 35 | 186 | 0.9 | 1.7 | 0.00 | 0.00 | 0.00 | 77 | 1011.3 |
| 20260505211831 | 35 | 186 | 0.9 | 1.7 | 0.00 | 0.00 | 0.00 | 77 | 1011.3 |
| 20260505211331 | 35 | 186 | 0.9 | 2.6 | 0.00 | 0.00 | 0.00 | 76 | 1011.3 |
| 20260505210832 | 35 | 186 | 0.9 | 2.6 | 0.00 | 0.00 | 0.00 | 76 | 1011.2 |
| 20260505210332 | 35 | 186 | 1.7 | 2.6 | 0.00 | 0.00 | 0.00 | 76 | 1011.2 |
| 20260505205831 | 36 | 186 | 1.7 | 2.6 | 0.00 | 0.00 | 0.00 | 75 | 1011.2 |
| 20260505205349 | 36 | 186 | 1.7 | 2.6 | 0.00 | 0.00 | 0.00 | 73 | 1011.2 |
| 20260505204857 | 36 | 186 | 1.7 | 1.7 | 0.00 | 0.00 | 0.00 | 74 | 1011.2 |
| 20260505204344 | 36 | 186 | 0.9 | 1.7 | 0.00 | 0.00 | 0.00 | 74 | 1011.1 |
| 20260505203832 | 36 | 186 | 0.9 | 1.7 | 0.00 | 0.00 | 0.00 | 73 | 1011.1 |
| 20260505203325 | 37 | 186 | 0.9 | 1.7 | 0.00 | 0.00 | 0.00 | 72 | 1011.0 |
| 20260505202828 | 37 | 186 | 0.9 | 1.7 | 0.00 | 0.00 | 0.00 | 71 | 1010.9 |
| 20260505202328 | 37 | 186 | 0.9 | 1.7 | 0.00 | 0.00 | 0.00 | 71 | 1010.9 |
| 20260505201827 | 38 | 186 | 0.9 | 1.7 | 0.00 | 0.00 | 0.00 | 69 | 1010.8 |
| 20260505201327 | 38 | 186 | 0.0 | 0.9 | 0.00 | 0.00 | 0.00 | 67 | 1010.8 |
| 20260505200857 | 39 | 186 | 0.0 | 0.9 | 0.00 | 0.00 | 0.00 | 67 | 1010.8 |
| 20260505200343 | 39 | 186 | 0.0 | 1.7 | 0.00 | 0.00 | 0.00 | 67 | 1010.8 |
| 20260505195832 | 39 | 186 | 0.9 | 1.7 | 0.00 | 0.00 | 0.00 | 63 | 1010.7 |
| 20260505195341 | 40 | 186 | 0.9 | 1.7 | 0.00 | 0.00 | 0.00 | 63 | 1010.6 |
| 20260505194827 | 40 | 186 | 0.9 | 1.7 | 0.00 | 0.00 | 0.00 | 62 | 1010.6 |
| 20260505194347 | 41 | 186 | 0.9 | 1.7 | 0.00 | 0.00 | 0.00 | 60 | 1010.6 |
| 20260505193827 | 41 | 186 | 0.9 | 1.7 | 0.00 | 0.00 | 0.00 | 56 | 1010.5 |
| 20260505193328 | 41 | 186 | 0.9 | 1.7 | 0.00 | 0.00 | 0.00 | 56 | 1010.5 |
| 20260505192828 | 41 | 186 | 0.9 | 2.6 | 0.00 | 0.00 | 0.00 | 56 | 1010.5 |
| 20260505192329 | 42 | 186 | 0.9 | 2.6 | 0.00 | 0.00 | 0.00 | 55 | 1010.4 |
| 20260505191829 | 43 | 285 | 0.9 | 2.6 | 0.00 | 0.00 | 0.00 | 54 | 1010.4 |
| 20260505191329 | 44 | 284 | 0.9 | 2.6 | 0.00 | 0.00 | 0.00 | 52 | 1010.4 |
| 20260505190830 | 45 | 284 | 0.9 | 1.7 | 0.00 | 0.00 | 0.00 | 49 | 1010.4 |
| 20260505190330 | 45 | 302 | 0.9 | 1.7 | 0.00 | 0.00 | 0.00 | 45 | 1010.3 |
| 20260505185830 | 46 | 302 | 0.9 | 2.6 | 0.00 | 0.00 | 0.00 | 44 | 1010.2 |
| 20260505185350 | 47 | 302 | 0.9 | 3.5 | 0.00 | 0.00 | 0.00 | 44 | 1010.2 |
| 20260505184837 | 47 | 302 | 0.9 | 3.5 | 0.00 | 0.00 | 0.00 | 42 | 1010.1 |
| 20260505184325 | 47 | 288 | 0.9 | 3.5 | 0.00 | 0.00 | 0.00 | 42 | 1010.1 |
| 20260505183853 | 48 | 280 | 1.7 | 4.3 | 0.00 | 0.00 | 0.00 | 39 | 1010.0 |
| 20260505183400 | 48 | 290 | 1.7 | 4.3 | 0.00 | 0.00 | 0.00 | 41 | 1009.9 |
| 20260505182847 | 48 | 285 | 2.6 | 5.2 | 0.00 | 0.00 | 0.00 | 39 | 1009.9 |
| 20260505182335 | 48 | 306 | 1.7 | 5.2 | 0.00 | 0.00 | 0.00 | 42 | 1009.9 |
| 20260505181841 | 49 | 290 | 1.7 | 4.3 | 0.00 | 0.00 | 0.00 | 39 | 1009.8 |
| 20260505181330 | 49 | 303 | 1.7 | 6.1 | 0.00 | 0.00 | 0.00 | 39 | 1009.8 |
| 20260505180836 | 49 | 294 | 3.5 | 7.0 | 0.00 | 0.00 | 0.00 | 38 | 1009.7 |
| 20260505180324 | 49 | 311 | 4.3 | 8.7 | 0.00 | 0.00 | 0.00 | 36 | 1009.7 |
| 20260505175831 | 50 | 300 | 4.3 | 10.4 | 0.00 | 0.00 | 0.00 | 36 | 1009.6 |
| 20260505175331 | 50 | 300 | 4.3 | 10.4 | 0.00 | 0.00 | 0.00 | 36 | 1009.6 |
| 20260505174850 | 50 | 284 | 4.3 | 11.3 | 0.00 | 0.00 | 0.00 | 36 | 1009.6 |
| 20260505174330 | 50 | 300 | 6.1 | 13.9 | 0.00 | 0.00 | 0.00 | 35 | 1009.5 |
| 20260505173830 | 50 | 321 | 4.3 | 10.4 | 0.00 | 0.00 | 0.00 | 37 | 1009.5 |
| 20260505173331 | 51 | 310 | 5.2 | 10.4 | 0.00 | 0.00 | 0.00 | 35 | 1009.5 |
| 20260505172831 | 51 | 309 | 4.3 | 13.0 | 0.00 | 0.00 | 0.00 | 35 | 1009.4 |
| 20260505172400 | 51 | 302 | 5.2 | 13.0 | 0.00 | 0.00 | 0.00 | 34 | 1009.4 |
| 20260505171828 | 52 | 298 | 6.1 | 11.3 | 0.00 | 0.00 | 0.00 | 32 | 1009.3 |
| 20260505171329 | 52 | 300 | 5.2 | 11.3 | 0.00 | 0.00 | 0.00 | 33 | 1009.4 |
| 20260505170830 | 52 | 275 | 5.2 | 7.8 | 0.00 | 0.00 | 0.00 | 37 | 1009.3 |
| 20260505170329 | 52 | 300 | 4.3 | 9.6 | 0.00 | 0.00 | 0.00 | 36 | 1009.3 |
| 20260505165830 | 52 | 268 | 5.2 | 11.3 | 0.00 | 0.00 | 0.00 | 35 | 1009.2 |
| 20260505165351 | 51 | 290 | 4.3 | 11.3 | 0.00 | 0.00 | 0.00 | 35 | 1009.2 |
| 20260505164830 | 51 | 329 | 5.2 | 11.3 | 0.00 | 0.00 | 0.00 | 36 | 1009.2 |
| 20260505164331 | 51 | 298 | 6.1 | 10.4 | 0.00 | 0.00 | 0.00 | 34 | 1009.2 |
| 20260505163839 | 51 | 269 | 5.2 | 9.6 | 0.00 | 0.00 | 0.00 | 34 | 1009.2 |
| 20260505163328 | 52 | 277 | 4.3 | 9.6 | 0.00 | 0.00 | 0.00 | 36 | 1009.2 |
| 20260505162849 | 53 | 290 | 5.2 | 11.3 | 0.00 | 0.00 | 0.00 | 35 | 1009.1 |
| 20260505162329 | 53 | 306 | 5.2 | 13.9 | 0.00 | 0.00 | 0.00 | 35 | 1009.1 |
| 20260505161850 | 53 | 291 | 8.7 | 13.9 | 0.00 | 0.00 | 0.00 | 34 | 1009.1 |
| 20260505161329 | 53 | 309 | 5.2 | 12.2 | 0.00 | 0.00 | 0.00 | 35 | 1009.1 |
| 20260505160830 | 53 | 309 | 6.1 | 15.6 | 0.00 | 0.00 | 0.00 | 33 | 1009.0 |
| 20260505160330 | 53 | 280 | 7.0 | 15.6 | 0.00 | 0.00 | 0.00 | 34 | 1009.0 |
| 20260505153329 | 54 | 278 | 6.1 | 11.3 | 0.00 | 0.00 | 0.00 | 35 | 1009.0 |
| 20260505152829 | 54 | 272 | 4.3 | 9.6 | 0.00 | 0.00 | 0.00 | 36 | 1009.0 |
| 20260505152331 | 54 | 305 | 3.5 | 12.2 | 0.00 | 0.00 | 0.00 | 37 | 1009.0 |
| 20260505151839 | 54 | 278 | 4.3 | 12.2 | 0.00 | 0.00 | 0.00 | 37 | 1009.0 |
| 20260505151328 | 54 | 283 | 7.0 | 11.3 | 0.00 | 0.00 | 0.00 | 36 | 1008.9 |
| 20260505150830 | 54 | 299 | 6.1 | 14.8 | 0.00 | 0.00 | 0.00 | 35 | 1008.9 |
| 20260505150329 | 54 | 279 | 7.8 | 14.8 | 0.00 | 0.00 | 0.00 | 36 | 1008.9 |
| 20260505140325 | 56 | 299 | 5.2 | 13.0 | 0.00 | 0.00 | 0.00 | 35 | 1008.9 |
| 20260505124850 | 53 | 298 | 7.8 | 13.0 | 0.00 | 0.00 | 0.00 | 39 | 1008.8 |
| 20260505124350 | 53 | 288 | 5.2 | 13.9 | 0.00 | 0.00 | 0.00 | 39 | 1008.8 |
| 20260505123831 | 53 | 306 | 6.1 | 13.9 | 0.00 | 0.00 | 0.00 | 38 | 1008.8 |
| 20260505123331 | 53 | 286 | 7.0 | 11.3 | 0.00 | 0.00 | 0.00 | 42 | 1008.8 |
| 20260505122831 | 53 | 285 | 4.3 | 13.9 | 0.00 | 0.00 | 0.00 | 41 | 1008.8 |
| 20260505122339 | 54 | 261 | 7.8 | 14.8 | 0.00 | 0.00 | 0.00 | 35 | 1008.8 |
| 20260505121828 | 56 | 308 | 7.8 | 14.8 | 0.00 | 0.00 | 0.00 | 36 | 1008.7 |
| 20260505121329 | 56 | 118 | 4.3 | 16.5 | 0.00 | 0.00 | 0.00 | 39 | 1008.6 |
| 20260505120829 | 56 | 308 | 7.0 | 13.0 | 0.00 | 0.00 | 0.00 | 37 | 1008.6 |
| 20260505120330 | 56 | 295 | 7.8 | 13.9 | 0.00 | 0.00 | 0.00 | 37 | 1008.5 |
| 20260505115839 | 55 | 276 | 4.3 | 13.9 | 0.00 | 0.00 | 0.00 | 36 | 1008.4 |
| 20260505115328 | 55 | 317 | 8.7 | 12.2 | 0.00 | 0.00 | 0.00 | 34 | 1008.5 |
| 20260505114829 | 56 | 278 | 7.8 | 16.5 | 0.00 | 0.00 | 0.00 | 36 | 1008.4 |
| 20260505114330 | 56 | 314 | 8.7 | 16.5 | 0.00 | 0.00 | 0.00 | 35 | 1008.4 |
| 20260505113831 | 55 | 295 | 2.6 | 13.9 | 0.00 | 0.00 | 0.00 | 35 | 1008.4 |
| 20260505113332 | 54 | 304 | 7.0 | 13.9 | 0.00 | 0.00 | 0.00 | 32 | 1008.5 |
| 20260505112831 | 54 | 319 | 8.7 | 13.0 | 0.00 | 0.00 | 0.00 | 37 | 1008.5 |
| 20260505112340 | 54 | 290 | 5.2 | 12.2 | 0.00 | 0.00 | 0.00 | 38 | 1008.5 |
| 20260505111829 | 53 | 316 | 7.8 | 14.8 | 0.00 | 0.00 | 0.00 | 35 | 1008.5 |
| 20260505111329 | 54 | 283 | 7.0 | 14.8 | 0.00 | 0.00 | 0.00 | 37 | 1008.5 |
| 20260505110830 | 55 | 246 | 5.2 | 14.8 | 0.00 | 0.00 | 0.00 | 36 | 1008.4 |
| 20260505110329 | 55 | 283 | 6.1 | 14.8 | 0.00 | 0.00 | 0.00 | 36 | 1008.4 |
| 20260505101831 | 53 | 284 | 4.3 | 11.3 | 0.00 | 0.00 | 0.00 | 39 | 1008.2 |
| 20260505101331 | 53 | 291 | 6.1 | 12.2 | 0.00 | 0.00 | 0.00 | 37 | 1008.2 |
| 20260505100851 | 54 | 306 | 7.0 | 12.2 | 0.00 | 0.00 | 0.00 | 36 | 1008.1 |
| 20260505100332 | 53 | 315 | 7.0 | 13.9 | 0.00 | 0.00 | 0.00 | 40 | 1008.1 |
| 20260505095851 | 53 | 277 | 6.1 | 12.2 | 0.00 | 0.00 | 0.00 | 40 | 1008.1 |
| 20260505095331 | 52 | 259 | 6.1 | 11.3 | 0.00 | 0.00 | 0.00 | 43 | 1008.1 |
| 20260505094830 | 52 | 299 | 6.1 | 12.2 | 0.00 | 0.00 | 0.00 | 44 | 1008.1 |
| 20260505094327 | 53 | 301 | 8.7 | 13.0 | 0.00 | 0.00 | 0.00 | 43 | 1008.0 |
| 20260505093826 | 53 | 311 | 4.3 | 14.8 | 0.00 | 0.00 | 0.00 | 45 | 1008.0 |
| 20260505093328 | 53 | 300 | 8.7 | 14.8 | 0.00 | 0.00 | 0.00 | 43 | 1008.1 |
| 20260505092826 | 52 | 342 | 6.1 | 12.2 | 0.00 | 0.00 | 0.00 | 46 | 1008.0 |